Time,TemperatureF,DewpointF,PressureIn,WindDirection,WindDirectionDegrees,WindSpeedMPH,WindSpeedGustMPH,Humidity,HourlyPrecipIn,Conditions,Clouds,dailyrainin,SoftwareType,DateUTC
2013-04-05 00:02:00,40.0,27.0,29.99,NW,319,0.0,1.0,59,0.00,,,0.00,,2013-04-05 04:02:00,
2013-04-05 00:12:00,40.0,27.0,29.99,NW,319,0.0,1.0,59,0.00,,,0.00,,2013-04-05 04:12:00,
2013-04-05 00:22:00,40.0,27.0,29.99,NW,320,0.0,0.0,60,0.00,,,0.00,,2013-04-05 04:22:00,
2013-04-05 00:32:00,40.0,27.0,29.99,NW,320,0.0,1.0,59,0.00,,,0.00,,2013-04-05 04:32:00,
2013-04-05 00:42:00,40.0,27.0,29.99,NW,320,0.0,1.0,59,0.00,,,0.00,,2013-04-05 04:42:00,
2013-04-05 00:52:00,40.0,28.0,29.99,NW,320,0.0,2.0,62,0.00,,,0.00,,2013-04-05 04:52:00,
2013-04-05 01:02:00,39.0,27.0,29.99,NW,320,0.0,1.0,62,0.00,,,0.00,,2013-04-05 05:02:00,
2013-04-05 01:12:00,39.0,27.0,29.99,NW,320,0.0,1.0,62,0.00,,,0.00,,2013-04-05 05:12:00,
2013-04-05 01:22:00,39.0,27.0,29.99,NW,319,0.0,1.0,61,0.00,,,0.00,,2013-04-05 05:22:00,
2013-04-05 01:32:00,40.0,26.0,29.99,NW,320,0.0,1.0,58,0.00,,,0.00,,2013-04-05 05:32:00,
2013-04-05 01:42:00,40.0,26.0,29.99,NW,320,0.0,1.0,58,0.00,,,0.00,,2013-04-05 05:42:00,
2013-04-05 01:52:00,40.0,27.0,29.99,NW,320,0.0,1.0,60,0.00,,,0.00,,2013-04-05 05:52:00,
2013-04-05 02:02:00,40.0,28.0,29.99,NW,319,0.0,1.0,61,0.00,,,0.00,,2013-04-05 06:02:00,
2013-04-05 02:12:00,40.0,28.0,29.99,NW,319,0.0,1.0,61,0.00,,,0.00,,2013-04-05 06:12:00,
2013-04-05 02:22:00,40.0,27.0,29.99,NW,320,1.0,2.0,60,0.00,,,0.00,,2013-04-05 06:22:00,
2013-04-05 02:32:00,40.0,28.0,29.99,NW,319,1.0,3.0,61,0.00,,,0.00,,2013-04-05 06:32:00,
2013-04-05 02:42:00,40.0,28.0,29.99,NW,319,1.0,3.0,61,0.00,,,0.00,,2013-04-05 06:42:00,
2013-04-05 02:52:00,40.0,28.0,29.98,NW,319,1.0,1.0,61,0.00,,,0.00,,2013-04-05 06:52:00,
2013-04-05 03:02:00,40.0,28.0,29.98,NW,319,1.0,2.0,62,0.00,,,0.00,,2013-04-05 07:02:00,
2013-04-05 03:12:00,40.0,28.0,29.98,NW,319,1.0,2.0,62,0.00,,,0.00,,2013-04-05 07:12:00,
2013-04-05 03:22:00,40.0,28.0,29.98,NW,320,1.0,2.0,61,0.00,,,0.00,,2013-04-05 07:22:00,
2013-04-05 03:32:00,39.0,27.0,29.98,NW,319,0.0,1.0,63,0.00,,,0.00,,2013-04-05 07:32:00,
2013-04-05 03:42:00,39.0,27.0,29.98,NW,319,0.0,1.0,63,0.00,,,0.00,,2013-04-05 07:42:00,
2013-04-05 03:52:00,39.0,27.0,29.98,NW,320,1.0,3.0,63,0.00,,,0.00,,2013-04-05 07:52:00,
2013-04-05 04:02:00,39.0,27.0,29.99,NW,320,0.0,2.0,62,0.00,,,0.00,,2013-04-05 08:02:00,
2013-04-05 04:12:00,39.0,27.0,29.99,NW,320,0.0,2.0,62,0.00,,,0.00,,2013-04-05 08:12:00,
2013-04-05 04:22:00,39.0,27.0,29.99,NW,320,0.0,1.0,62,0.00,,,0.00,,2013-04-05 08:22:00,
2013-04-05 04:32:00,39.0,28.0,30.00,NW,319,1.0,3.0,64,0.00,,,0.00,,2013-04-05 08:32:00,
2013-04-05 04:42:00,39.0,28.0,30.00,NW,319,1.0,3.0,64,0.00,,,0.00,,2013-04-05 08:42:00,
2013-04-05 04:52:00,39.0,28.0,30.00,NW,320,0.0,2.0,65,0.00,,,0.00,,2013-04-05 08:52:00,
2013-04-05 05:02:00,40.0,29.0,30.01,NNE,26,4.0,6.0,65,0.00,,,0.00,,2013-04-05 09:02:00,
2013-04-05 05:12:00,40.0,29.0,30.01,NNE,26,4.0,6.0,65,0.00,,,0.00,,2013-04-05 09:12:00,
2013-04-05 05:22:00,40.0,29.0,30.01,NE,34,2.0,6.0,65,0.00,,,0.00,,2013-04-05 09:22:00,
2013-04-05 05:33:00,40.0,30.0,30.01,NE,44,0.0,3.0,67,0.00,,,0.00,,2013-04-05 09:33:00,
2013-04-05 05:42:00,40.0,30.0,30.01,NE,44,0.0,3.0,67,0.00,,,0.00,,2013-04-05 09:42:00,
2013-04-05 05:53:00,39.0,29.0,30.01,NE,44,0.0,2.0,68,0.00,,,0.00,,2013-04-05 09:53:00,
2013-04-05 06:02:00,38.0,29.0,30.02,NE,45,1.0,4.0,70,0.00,,,0.00,,2013-04-05 10:02:00,
2013-04-05 06:12:00,38.0,29.0,30.02,NE,45,1.0,4.0,70,0.00,,,0.00,,2013-04-05 10:12:00,
2013-04-05 06:23:00,38.0,30.0,30.03,ENE,60,1.0,3.0,72,0.00,,,0.00,,2013-04-05 10:23:00,
2013-04-05 06:32:00,39.0,31.0,30.03,ENE,59,1.0,6.0,72,0.00,,,0.00,,2013-04-05 10:32:00,
2013-04-05 06:42:00,39.0,31.0,30.03,ENE,59,1.0,6.0,72,0.00,,,0.00,,2013-04-05 10:42:00,
2013-04-05 06:53:00,39.0,30.0,30.04,NE,46,0.0,3.0,71,0.00,,,0.00,,2013-04-05 10:53:00,
2013-04-05 07:02:00,38.0,30.0,30.05,NE,47,0.0,2.0,73,0.00,,,0.00,,2013-04-05 11:02:00,
2013-04-05 07:12:00,38.0,30.0,30.05,NE,47,0.0,2.0,73,0.00,,,0.00,,2013-04-05 11:12:00,
2013-04-05 07:22:00,37.0,30.0,30.06,NE,56,0.0,3.0,75,0.00,,,0.00,,2013-04-05 11:22:00,
2013-04-05 07:32:00,37.0,30.0,30.06,NE,36,0.0,4.0,75,0.00,,,0.00,,2013-04-05 11:32:00,
2013-04-05 07:42:00,37.0,30.0,30.06,NE,36,0.0,4.0,75,0.00,,,0.00,,2013-04-05 11:42:00,
2013-04-05 07:52:00,37.0,30.0,30.07,NE,36,1.0,3.0,75,0.00,,,0.00,,2013-04-05 11:52:00,
2013-04-05 08:02:00,37.0,30.0,30.07,NE,56,0.0,3.0,76,0.00,,,0.00,,2013-04-05 12:02:00,
2013-04-05 08:12:00,37.0,30.0,30.07,NE,56,0.0,3.0,76,0.00,,,0.00,,2013-04-05 12:12:00,
2013-04-05 08:22:00,37.0,30.0,30.08,NNE,26,0.0,5.0,77,0.00,,,0.00,,2013-04-05 12:22:00,
2013-04-05 08:32:00,37.0,31.0,30.09,NE,50,1.0,4.0,78,0.00,,,0.00,,2013-04-05 12:32:00,
2013-04-05 08:42:00,37.0,31.0,30.09,NE,50,1.0,4.0,78,0.00,,,0.00,,2013-04-05 12:42:00,
2013-04-05 08:52:00,38.0,32.0,30.09,NE,44,2.0,8.0,78,0.00,,,0.00,,2013-04-05 12:52:00,
2013-04-05 09:02:00,39.0,33.0,30.10,NNE,19,3.0,10.0,78,0.00,,,0.00,,2013-04-05 13:02:00,
2013-04-05 09:12:00,39.0,33.0,30.10,NNE,19,3.0,10.0,78,0.00,,,0.00,,2013-04-05 13:12:00,
2013-04-05 09:22:00,41.0,34.0,30.11,NNE,15,2.0,9.0,77,0.00,,,0.00,,2013-04-05 13:22:00,
2013-04-05 09:32:00,42.0,36.0,30.11,SE,130,3.0,11.0,79,0.00,,,0.00,,2013-04-05 13:32:00,
2013-04-05 09:42:00,42.0,36.0,30.11,SE,130,3.0,11.0,79,0.00,,,0.00,,2013-04-05 13:42:00,
2013-04-05 09:52:00,43.0,37.0,30.11,NNE,21,6.0,14.0,78,0.00,,,0.00,,2013-04-05 13:52:00,
2013-04-05 10:03:00,43.0,36.0,30.12,NE,41,6.0,11.0,77,0.00,,,0.00,,2013-04-05 14:03:00,
2013-04-05 10:12:00,43.0,36.0,30.12,NE,41,6.0,11.0,77,0.00,,,0.00,,2013-04-05 14:12:00,
2013-04-05 10:36:00,46.0,37.0,30.12,SSE,163,5.0,14.0,72,0.00,,,0.00,,2013-04-05 14:36:00,
2013-04-05 10:42:00,46.0,37.0,30.12,SSE,163,5.0,14.0,72,0.00,,,0.00,,2013-04-05 14:42:00,
2013-04-05 10:53:00,47.0,37.0,30.12,ENE,76,5.0,11.0,68,0.00,,,0.00,,2013-04-05 14:53:00,
2013-04-05 11:02:00,48.0,37.0,30.12,ENE,78,1.0,10.0,66,0.00,,,0.00,,2013-04-05 15:02:00,
2013-04-05 11:12:00,48.0,37.0,30.12,ENE,78,1.0,10.0,66,0.00,,,0.00,,2013-04-05 15:12:00,
2013-04-05 11:23:00,50.0,38.0,30.13,ENE,67,3.0,8.0,63,0.00,,,0.00,,2013-04-05 15:23:00,
2013-04-05 11:33:00,51.0,37.0,30.14,NNE,15,4.0,11.0,59,0.00,,,0.00,,2013-04-05 15:33:00,
2013-04-05 11:42:00,51.0,37.0,30.14,NNE,15,4.0,11.0,59,0.00,,,0.00,,2013-04-05 15:42:00,
2013-04-05 11:53:00,51.0,38.0,30.14,ENE,74,2.0,9.0,60,0.00,,,0.00,,2013-04-05 15:53:00,
2013-04-05 12:02:00,52.0,37.0,30.14,NE,45,4.0,10.0,57,0.00,,,0.00,,2013-04-05 16:02:00,
2013-04-05 12:13:00,52.0,37.0,30.14,NE,45,4.0,10.0,57,0.00,,,0.00,,2013-04-05 16:13:00,
2013-04-05 12:23:00,53.0,38.0,30.14,NNE,20,3.0,10.0,57,0.00,,,0.00,,2013-04-05 16:23:00,
2013-04-05 12:33:00,55.0,39.0,30.14,East,80,3.0,9.0,54,0.00,,,0.00,,2013-04-05 16:33:00,
2013-04-05 12:42:00,55.0,39.0,30.14,East,80,3.0,9.0,54,0.00,,,0.00,,2013-04-05 16:42:00,
2013-04-05 12:53:00,54.0,37.0,30.14,ENE,69,4.0,13.0,52,0.00,,,0.00,,2013-04-05 16:53:00,
2013-04-05 13:03:00,54.0,37.0,30.14,North,360,3.0,12.0,53,0.00,,,0.00,,2013-04-05 17:03:00,
2013-04-05 13:13:00,54.0,37.0,30.14,North,360,3.0,12.0,53,0.00,,,0.00,,2013-04-05 17:13:00,
2013-04-05 13:23:00,55.0,37.0,30.14,NE,47,4.0,11.0,50,0.00,,,0.00,,2013-04-05 17:23:00,
2013-04-05 13:32:00,56.0,37.0,30.14,NNE,33,7.0,16.0,49,0.00,,,0.00,,2013-04-05 17:32:00,
2013-04-05 13:45:00,56.0,37.0,30.14,NNE,33,7.0,16.0,49,0.00,,,0.00,,2013-04-05 17:45:00,
2013-04-05 13:52:00,56.0,36.0,30.14,East,98,2.0,9.0,46,0.00,,,0.00,,2013-04-05 17:52:00,
2013-04-05 14:02:00,56.0,34.0,30.14,East,98,6.0,11.0,44,0.00,,,0.00,,2013-04-05 18:02:00,
2013-04-05 14:12:00,56.0,34.0,30.14,East,98,6.0,11.0,44,0.00,,,0.00,,2013-04-05 18:12:00,
2013-04-05 14:22:00,56.0,36.0,30.13,East,80,4.0,13.0,46,0.00,,,0.00,,2013-04-05 18:22:00,
2013-04-05 14:32:00,57.0,34.0,30.13,NNE,25,3.0,14.0,42,0.00,,,0.00,,2013-04-05 18:32:00,
2013-04-05 14:42:00,57.0,34.0,30.13,NNE,25,3.0,14.0,42,0.00,,,0.00,,2013-04-05 18:42:00,
2013-04-05 14:53:00,57.0,32.0,30.12,East,80,7.0,13.0,38,0.00,,,0.00,,2013-04-05 18:53:00,
2013-04-05 15:01:00,58.0,32.0,30.11,NE,47,6.0,14.0,37,0.00,,,0.00,,2013-04-05 19:01:00,
2013-04-05 15:02:00,57.0,31.0,30.11,NE,47,5.0,11.0,37,0.00,,,0.00,,2013-04-05 19:02:00,
2013-04-05 15:13:00,57.0,31.0,30.11,NE,47,5.0,11.0,37,0.00,,,0.00,,2013-04-05 19:13:00,
2013-04-05 15:22:00,58.0,32.0,30.11,NE,47,6.0,14.0,37,0.00,,,0.00,,2013-04-05 19:22:00,
2013-04-05 15:33:00,58.0,32.0,30.11,NE,47,6.0,14.0,37,0.00,,,0.00,,2013-04-05 19:33:00,
2013-04-05 15:42:00,58.0,32.0,30.11,NE,47,6.0,14.0,37,0.00,,,0.00,,2013-04-05 19:42:00,
2013-04-05 15:52:00,58.0,32.0,30.11,NE,47,6.0,14.0,37,0.00,,,0.00,,2013-04-05 19:52:00,
2013-04-05 16:22:00,58.0,29.0,30.10,ESE,121,7.0,12.0,33,0.00,,,0.00,,2013-04-05 20:22:00,
2013-04-05 16:33:00,58.0,29.0,30.10,ESE,121,7.0,12.0,33,0.00,,,0.00,,2013-04-05 20:33:00,
2013-04-05 16:42:00,58.0,29.0,30.10,ESE,121,7.0,12.0,33,0.00,,,0.00,,2013-04-05 20:42:00,
2013-04-05 16:52:00,58.0,28.0,30.09,ENE,75,3.0,12.0,31,0.00,,,0.00,,2013-04-05 20:52:00,
2013-04-05 17:02:00,58.0,24.0,30.08,NNE,29,1.0,9.0,27,0.00,,,0.00,,2013-04-05 21:02:00,
2013-04-05 17:12:00,58.0,24.0,30.08,NNE,29,1.0,9.0,27,0.00,,,0.00,,2013-04-05 21:12:00,
2013-04-05 17:23:00,58.0,26.0,30.08,SSE,165,6.0,13.0,29,0.00,,,0.00,,2013-04-05 21:23:00,
2013-04-05 17:33:00,58.0,26.0,30.08,North,355,4.0,10.0,29,0.00,,,0.00,,2013-04-05 21:33:00,
2013-04-05 17:43:00,58.0,26.0,30.08,North,355,4.0,10.0,29,0.00,,,0.00,,2013-04-05 21:43:00,
2013-04-05 17:54:00,57.0,26.0,30.09,South,184,1.0,6.0,30,0.00,,,0.00,,2013-04-05 21:54:00,
2013-04-05 18:03:00,57.0,25.0,30.09,NNE,13,1.0,7.0,29,0.00,,,0.00,,2013-04-05 22:03:00,
2013-04-05 18:13:00,57.0,25.0,30.09,NNE,13,1.0,7.0,29,0.00,,,0.00,,2013-04-05 22:13:00,
2013-04-05 18:23:00,56.0,26.0,30.10,NE,45,2.0,10.0,31,0.00,,,0.00,,2013-04-05 22:23:00,
2013-04-05 18:33:00,56.0,26.0,30.10,NNE,13,4.0,12.0,31,0.00,,,0.00,,2013-04-05 22:33:00,
2013-04-05 18:43:00,56.0,26.0,30.10,NNE,13,4.0,12.0,31,0.00,,,0.00,,2013-04-05 22:43:00,
2013-04-05 18:53:00,55.0,23.0,30.11,NNE,26,2.0,7.0,29,0.00,,,0.00,,2013-04-05 22:53:00,
2013-04-05 19:02:00,54.0,22.0,30.11,North,360,6.0,12.0,29,0.00,,,0.00,,2013-04-05 23:02:00,
2013-04-05 19:12:00,54.0,22.0,30.11,North,360,6.0,12.0,29,0.00,,,0.00,,2013-04-05 23:12:00,
2013-04-05 19:22:00,54.0,22.0,30.11,NE,36,4.0,11.0,28,0.00,,,0.00,,2013-04-05 23:22:00,
2013-04-05 19:32:00,53.0,21.0,30.11,NNE,22,4.0,12.0,28,0.00,,,0.00,,2013-04-05 23:32:00,
2013-04-05 19:42:00,53.0,21.0,30.11,NNE,22,4.0,12.0,28,0.00,,,0.00,,2013-04-05 23:42:00,
2013-04-05 19:53:00,52.0,22.0,30.12,East,88,4.0,11.0,30,0.00,,,0.00,,2013-04-05 23:53:00,
2013-04-05 20:02:00,51.0,22.0,30.12,ESE,111,2.0,11.0,32,0.00,,,0.00,,2013-04-06 00:02:00,
2013-04-05 20:12:00,51.0,22.0,30.12,ESE,111,2.0,11.0,32,0.00,,,0.00,,2013-04-06 00:12:00,
2013-04-05 20:22:00,50.0,23.0,30.13,East,80,3.0,13.0,34,0.00,,,0.00,,2013-04-06 00:22:00,
2013-04-05 20:32:00,48.0,22.0,30.13,NE,50,3.0,8.0,36,0.00,,,0.00,,2013-04-06 00:32:00,
2013-04-05 20:42:00,48.0,22.0,30.13,NE,50,3.0,8.0,36,0.00,,,0.00,,2013-04-06 00:42:00,
2013-04-05 20:52:00,47.0,23.0,30.14,East,87,4.0,12.0,39,0.00,,,0.00,,2013-04-06 00:52:00,
2013-04-05 21:02:00,45.0,23.0,30.14,ESE,104,2.0,10.0,42,0.00,,,0.00,,2013-04-06 01:02:00,
2013-04-05 21:12:00,44.0,24.0,30.14,East,87,6.0,12.0,45,0.00,,,0.00,,2013-04-06 01:12:00,
2013-04-05 21:22:00,44.0,24.0,30.14,East,87,6.0,12.0,45,0.00,,,0.00,,2013-04-06 01:22:00,
2013-04-05 21:32:00,43.0,25.0,30.15,East,80,4.0,13.0,49,0.00,,,0.00,,2013-04-06 01:32:00,
2013-04-05 21:42:00,43.0,25.0,30.15,East,80,4.0,13.0,49,0.00,,,0.00,,2013-04-06 01:42:00,
2013-04-05 21:53:00,42.0,26.0,30.15,East,94,4.0,11.0,53,0.00,,,0.00,,2013-04-06 01:53:00,
2013-04-05 22:02:00,41.0,26.0,30.16,East,93,3.0,7.0,55,0.00,,,0.00,,2013-04-06 02:02:00,
2013-04-05 22:12:00,41.0,26.0,30.16,East,93,3.0,7.0,55,0.00,,,0.00,,2013-04-06 02:12:00,
2013-04-05 22:22:00,40.0,26.0,30.16,ESE,109,2.0,10.0,57,0.00,,,0.00,,2013-04-06 02:22:00,
2013-04-05 22:32:00,40.0,26.0,30.16,East,81,3.0,9.0,58,0.00,,,0.00,,2013-04-06 02:32:00,
2013-04-05 22:42:00,40.0,26.0,30.16,East,81,3.0,9.0,58,0.00,,,0.00,,2013-04-06 02:42:00,
2013-04-05 22:52:00,39.0,26.0,30.16,East,95,2.0,7.0,59,0.00,,,0.00,,2013-04-06 02:52:00,
2013-04-05 23:02:00,39.0,27.0,30.17,SE,131,2.0,10.0,61,0.00,,,0.00,,2013-04-06 03:02:00,
2013-04-05 23:12:00,39.0,27.0,30.17,SE,131,2.0,10.0,61,0.00,,,0.00,,2013-04-06 03:12:00,
2013-04-05 23:22:00,38.0,26.0,30.16,East,95,1.0,10.0,62,0.00,,,0.00,,2013-04-06 03:22:00,
2013-04-05 23:33:00,38.0,27.0,30.16,SE,125,1.0,8.0,64,0.00,,,0.00,,2013-04-06 03:33:00,
2013-04-05 23:42:00,38.0,27.0,30.16,SE,125,1.0,8.0,64,0.00,,,0.00,,2013-04-06 03:42:00,
2013-04-05 23:54:00,38.0,28.0,30.15,East,83,0.0,5.0,66,0.00,,,0.00,,2013-04-06 03:54:00,